createdAt,value
2022-12-25T00:06:26.811Z,92.30
2022-12-25T00:12:26.208Z,92.30
2022-12-25T00:36:23.232Z,92.50
2022-12-25T00:46:58.019Z,92.50
2022-12-25T00:50:26.576Z,92.50
2022-12-25T01:06:13.773Z,92.60
2022-12-25T01:34:41.965Z,92.30
2022-12-25T01:38:55.123Z,92.30
2022-12-25T01:45:55.728Z,92.60
2022-12-25T01:56:23.626Z,92.50
2022-12-25T02:29:27.332Z,92.50
2022-12-25T02:33:32.936Z,92.60
2022-12-25T02:51:28.520Z,92.70
2022-12-25T03:01:32.332Z,92.70
2022-12-25T03:12:21.286Z,92.70
2022-12-25T04:19:28.402Z,92.80
2022-12-25T04:50:33.029Z,92.80
2022-12-25T05:40:08.678Z,92.80
2022-12-25T05:42:58.327Z,92.90
2022-12-25T05:49:35.171Z,92.90
2022-12-25T06:02:43.683Z,92.90
2022-12-25T06:22:28.445Z,92.90
2022-12-25T06:33:05.956Z,92.90
2022-12-25T06:39:27.996Z,92.90
2022-12-25T06:42:21.155Z,92.90
2022-12-25T06:59:55.392Z,92.80
2022-12-25T07:10:06.085Z,92.80
2022-12-25T08:02:14.070Z,92.80
2022-12-25T08:11:56.955Z,92.80
2022-12-25T08:23:46.780Z,92.80
2022-12-25T08:25:35.979Z,92.80
2022-12-25T08:28:46.206Z,92.70
2022-12-25T08:32:33.830Z,92.70
2022-12-25T08:35:50.824Z,92.70
2022-12-25T08:38:55.586Z,92.70
2022-12-25T08:48:46.162Z,92.70
2022-12-25T08:55:36.551Z,92.80
2022-12-25T08:58:19.907Z,92.80
2022-12-25T09:01:35.212Z,92.80
2022-12-25T09:08:27.152Z,92.80
2022-12-25T09:11:39.131Z,92.80
2022-12-25T09:19:52.441Z,93.00
2022-12-25T09:22:06.905Z,92.70
2022-12-25T09:28:51.851Z,92.70
2022-12-25T09:36:38.217Z,92.70
2022-12-25T09:42:45.928Z,92.70
2022-12-25T09:50:18.120Z,92.70
2022-12-25T09:53:26.265Z,92.70
2022-12-25T09:56:58.220Z,92.70
2022-12-25T10:03:53.336Z,92.70
2022-12-25T10:10:41.115Z,92.70
2022-12-25T10:21:15.093Z,92.60
2022-12-25T10:44:56.208Z,92.50
2022-12-25T10:48:12.436Z,92.50
2022-12-25T10:54:49.767Z,92.50
2022-12-25T11:18:43.620Z,92.40
2022-12-25T11:22:39.744Z,92.40
2022-12-25T11:25:25.074Z,92.40
2022-12-25T11:32:38.906Z,92.30
2022-12-25T11:39:26.575Z,92.30
2022-12-25T11:42:28.547Z,92.30
2022-12-25T11:48:34.686Z,92.20
2022-12-25T11:51:19.976Z,92.20
2022-12-25T11:54:21.639Z,92.20
2022-12-25T12:00:16.455Z,92.10
2022-12-25T12:03:42.641Z,92.10
2022-12-25T12:06:21.584Z,92.10
2022-12-25T12:08:49.728Z,92.00
2022-12-25T12:11:29.032Z,91.90
2022-12-25T12:14:37.825Z,91.90
2022-12-25T12:20:38.584Z,91.80
2022-12-25T12:23:41.220Z,91.70
2022-12-25T12:26:33.898Z,91.70
2022-12-25T12:36:09.994Z,91.40
2022-12-25T12:39:06.022Z,91.40
2022-12-25T12:42:14.565Z,91.30
2022-12-25T12:44:44.534Z,91.30
2022-12-25T12:47:43.420Z,91.30
2022-12-25T12:57:28.189Z,91.20
2022-12-25T13:00:13.928Z,91.10
2022-12-25T13:08:27.423Z,91.00
2022-12-25T13:13:57.393Z,91.00
2022-12-25T13:16:42.908Z,91.00
2022-12-25T13:23:02.532Z,90.90
2022-12-25T13:36:10.864Z,90.80
2022-12-25T13:43:34.887Z,90.70
2022-12-25T13:47:01.543Z,90.70
2022-12-25T13:53:20.275Z,90.80
2022-12-25T13:56:50.698Z,90.80
2022-12-25T14:14:35.338Z,90.70
2022-12-25T14:17:46.331Z,90.70
2022-12-25T14:21:39.005Z,90.70
2022-12-25T14:31:18.812Z,90.70
2022-12-25T14:37:52.536Z,90.70
2022-12-25T14:41:31.627Z,90.60
2022-12-25T14:44:56.341Z,90.60
2022-12-25T15:06:45.042Z,90.70
2022-12-25T15:09:37.742Z,90.70
2022-12-25T15:12:31.360Z,90.70
2022-12-25T15:21:59.328Z,90.70
2022-12-25T16:10:12.985Z,90.90
2022-12-25T16:27:38.939Z,91.10
2022-12-25T17:37:42.101Z,91.30
2022-12-25T17:54:51.379Z,91.20
2022-12-25T17:57:31.673Z,91.20
2022-12-25T18:00:13.138Z,91.20
2022-12-25T18:03:38.676Z,91.30
2022-12-25T18:05:43.044Z,91.30
2022-12-25T18:08:22.546Z,91.30
2022-12-25T18:10:49.684Z,91.40
2022-12-25T18:13:19.794Z,91.40
2022-12-25T18:15:46.780Z,91.50
2022-12-25T18:18:24.778Z,91.50
2022-12-25T18:20:53.329Z,91.50
2022-12-25T18:23:29.578Z,91.60
2022-12-25T18:25:57.062Z,91.60
2022-12-25T18:28:28.797Z,91.70
2022-12-25T18:31:00.809Z,91.70
2022-12-25T18:33:31.097Z,91.70
2022-12-25T18:36:04.129Z,91.70
2022-12-25T18:38:31.305Z,91.80
2022-12-25T18:40:58.520Z,91.80
2022-12-25T18:43:51.546Z,91.80
2022-12-25T18:46:13.026Z,91.80
2022-12-25T18:48:40.445Z,91.90
2022-12-25T18:51:08.999Z,91.90
2022-12-25T18:53:36.177Z,91.90
2022-12-25T18:56:11.712Z,91.90
2022-12-25T18:58:38.815Z,91.90
2022-12-25T19:01:21.078Z,92.00
2022-12-25T19:03:49.296Z,92.00
2022-12-25T19:06:19.569Z,92.00
2022-12-25T19:08:46.859Z,92.00
2022-12-25T19:11:14.173Z,92.00
2022-12-25T19:13:41.410Z,92.00
2022-12-25T19:16:08.773Z,92.10
2022-12-25T19:18:40.972Z,92.10
2022-12-25T19:21:10.894Z,92.10
2022-12-25T19:23:46.137Z,92.10
2022-12-25T19:26:16.217Z,92.10
2022-12-25T19:28:43.463Z,92.10
2022-12-25T19:31:10.996Z,92.10
2022-12-25T19:33:42.122Z,92.10
2022-12-25T19:36:14.363Z,92.10
2022-12-25T19:38:41.772Z,92.10
2022-12-25T19:41:17.081Z,92.10
2022-12-25T19:43:47.813Z,92.20
2022-12-25T19:46:28.931Z,92.20
2022-12-25T19:49:08.993Z,92.20
2022-12-25T19:51:41.957Z,92.20
2022-12-25T19:54:20.816Z,92.20
2022-12-25T19:56:48.450Z,92.20
2022-12-25T19:59:15.966Z,92.20
2022-12-25T20:01:45.861Z,92.20
2022-12-25T20:04:13.129Z,92.20
2022-12-25T20:06:42.720Z,92.20
2022-12-25T20:09:13.436Z,92.20
2022-12-25T20:11:41.150Z,92.50
2022-12-25T20:14:08.490Z,92.30
2022-12-25T20:16:40.250Z,92.30
2022-12-25T20:19:15.080Z,92.30
2022-12-25T20:21:50.297Z,92.30
2022-12-25T20:24:17.552Z,92.30
2022-12-25T20:26:49.124Z,92.30
2022-12-25T20:29:20.224Z,92.30
2022-12-25T20:32:01.075Z,92.30
2022-12-25T20:34:33.319Z,92.40
2022-12-25T20:37:12.197Z,92.40
2022-12-25T20:39:41.919Z,92.30
2022-12-25T20:42:11.630Z,92.30
2022-12-25T20:44:41.618Z,92.30
2022-12-25T20:47:13.166Z,92.30
2022-12-25T20:49:50.864Z,92.40
2022-12-25T20:52:26.982Z,92.40
2022-12-25T20:54:59.717Z,92.40
2022-12-25T20:57:27.946Z,92.40
2022-12-25T20:59:57.722Z,92.40
2022-12-25T21:02:34.569Z,92.40
2022-12-25T21:05:14.357Z,92.40
2022-12-25T21:07:49.254Z,92.40
2022-12-25T21:10:19.408Z,92.50
2022-12-25T21:12:56.793Z,92.50
2022-12-25T21:15:42.192Z,92.50
2022-12-25T21:18:14.650Z,92.50
2022-12-25T21:20:54.813Z,92.50
2022-12-25T21:23:27.672Z,92.50
2022-12-25T21:25:58.153Z,92.50
2022-12-25T21:28:30.584Z,92.50
2022-12-25T21:31:14.689Z,92.50
2022-12-25T21:33:57.838Z,92.50
2022-12-25T21:36:29.794Z,92.50
2022-12-25T21:39:20.059Z,92.40
2022-12-25T21:41:58.282Z,92.40
2022-12-25T21:47:18.292Z,92.50
2022-12-25T21:50:06.630Z,92.50
2022-12-25T21:52:37.189Z,92.50
2022-12-25T21:55:10.057Z,92.60
2022-12-25T21:57:40.421Z,92.50
2022-12-25T22:00:13.556Z,92.50
2022-12-25T22:02:44.162Z,92.50
2022-12-25T22:05:31.568Z,92.50
2022-12-25T22:08:06.213Z,92.50
2022-12-25T22:10:38.786Z,92.50
2022-12-25T22:13:24.757Z,92.50
2022-12-25T22:16:11.133Z,92.60
2022-12-25T22:19:01.512Z,92.60
2022-12-25T22:21:28.963Z,92.70
2022-12-25T22:23:56.324Z,92.60
2022-12-25T22:26:29.054Z,92.70
2022-12-25T22:29:04.259Z,92.90
2022-12-25T22:31:34.735Z,92.60
2022-12-25T22:34:05.904Z,92.70
2022-12-25T22:36:37.029Z,92.70
2022-12-25T22:39:25.381Z,92.70
2022-12-25T22:42:03.091Z,92.70
2022-12-25T22:44:36.455Z,92.70
2022-12-25T22:47:10.442Z,92.80
2022-12-25T22:49:52.293Z,92.80
2022-12-25T22:52:22.819Z,92.80
2022-12-25T22:54:50.109Z,92.80
2022-12-25T22:57:17.428Z,92.80
2022-12-25T22:59:49.654Z,92.80
2022-12-25T23:02:48.332Z,92.80
2022-12-25T23:05:24.759Z,92.80
2022-12-25T23:07:58.735Z,92.80
2022-12-25T23:10:43.227Z,92.80
2022-12-25T23:13:29.225Z,92.80
2022-12-25T23:16:00.498Z,92.80
2022-12-25T23:18:53.203Z,92.80
2022-12-25T23:21:41.604Z,92.80
2022-12-25T23:24:32.568Z,92.80
2022-12-25T23:27:17.005Z,92.80
2022-12-25T23:29:48.996Z,92.80
2022-12-25T23:32:31.915Z,92.80
2022-12-25T23:35:06.252Z,92.80
2022-12-25T23:37:41.304Z,92.80
2022-12-25T23:40:11.047Z,92.80
2022-12-25T23:42:44.380Z,92.80
2022-12-25T23:45:14.317Z,92.80
2022-12-25T23:47:54.565Z,92.80
2022-12-25T23:50:26.791Z,92.90
2022-12-25T23:53:04.538Z,92.90
2022-12-25T23:55:34.944Z,92.90
2022-12-25T23:58:07.194Z,92.90
